Time;durP1;ratioP1;P1;durP2;ratioP2;P2;SDS_P1;SDS_P2;PMS_P1;PMS_P2;Temp;Humidity;BMP_temperature;BMP_pressure;BME280_temperature;BME280_humidity;BME280_pressure;Samples;Min_cycle;Max_cycle;Signal;HPM_P1;HPM_P2
2022/07/01 00:01:31;;;;;;;0.73;0.40;;;15.80;99.90;;;;;;5005502;28;20386;-84
2022/07/01 00:03:57;;;;;;;3.00;0.40;;;15.80;99.90;;;;;;5011037;28;20748;-86
2022/07/01 00:06:23;;;;;;;0.40;0.40;;;15.80;99.90;;;;;;5014285;28;20219;-83
2022/07/01 00:08:49;;;;;;;0.73;0.40;;;15.70;99.90;;;;;;5007949;28;20222;-85
2022/07/01 00:11:15;;;;;;;0.43;0.43;;;15.70;99.90;;;;;;5011482;28;20704;-85
2022/07/01 00:13:41;;;;;;;0.30;0.30;;;15.70;99.90;;;;;;5010599;28;20891;-84
2022/07/01 00:16:07;;;;;;;2.03;0.33;;;15.80;99.90;;;;;;5013010;28;20219;-84
2022/07/01 00:18:32;;;;;;;0.67;0.40;;;15.90;99.90;;;;;;5015718;28;20695;-84
2022/07/01 00:21:00;;;;;;;1.37;0.60;;;15.90;99.90;;;;;;5007588;28;20549;-85
2022/07/01 00:23:27;;;;;;;0.67;0.40;;;16.00;99.90;;;;;;5009145;28;20294;-82
2022/07/01 00:25:53;;;;;;;2.47;0.40;;;16.00;99.90;;;;;;5012607;28;20883;-83
2022/07/01 00:28:19;;;;;;;0.30;0.30;;;16.00;99.90;;;;;;5008305;28;20287;-82
2022/07/01 00:30:45;;;;;;;1.60;0.60;;;16.00;99.90;;;;;;5009119;28;20219;-84
2022/07/01 00:33:10;;;;;;;2.57;0.70;;;16.00;99.90;;;;;;5011464;28;20222;-83
2022/07/01 00:35:36;;;;;;;1.10;0.70;;;15.90;99.90;;;;;;5011677;28;20781;-83
2022/07/01 00:38:02;;;;;;;1.23;1.00;;;15.90;99.90;;;;;;5026755;28;20222;-84
2022/07/01 00:40:28;;;;;;;0.57;0.57;;;15.90;99.90;;;;;;5041880;28;20219;-83
2022/07/01 00:42:54;;;;;;;0.50;0.50;;;15.90;99.90;;;;;;5010648;28;20222;-85
2022/07/01 00:45:20;;;;;;;0.50;0.43;;;15.80;99.90;;;;;;5009653;28;20219;-83
2022/07/01 00:47:46;;;;;;;1.10;0.60;;;15.80;99.90;;;;;;5024438;28;20277;-85
2022/07/01 00:50:13;;;;;;;1.13;0.80;;;15.80;99.90;;;;;;5025827;28;20589;-83
2022/07/01 00:52:41;;;;;;;1.50;0.50;;;15.90;99.90;;;;;;5009380;28;20561;-83
2022/07/01 00:55:12;;;;;;;1.13;0.80;;;15.90;99.90;;;;;;5008903;28;20329;-83
2022/07/01 00:57:39;;;;;;;4.47;1.00;;;15.90;99.90;;;;;;5014599;28;20272;-84
2022/07/01 01:00:09;;;;;;;0.83;0.80;;;16.00;99.90;;;;;;5011893;28;20677;-83
2022/07/01 01:02:35;;;;;;;0.77;0.50;;;16.00;99.90;;;;;;5012581;28;20274;-84
2022/07/01 01:05:01;;;;;;;2.77;0.53;;;15.90;99.90;;;;;;5013906;28;20198;-84
2022/07/01 01:07:27;;;;;;;3.20;0.50;;;15.80;99.90;;;;;;5012342;28;20215;-85
2022/07/01 01:09:53;;;;;;;0.70;0.60;;;15.80;99.90;;;;;;5007226;28;20238;-84
2022/07/01 01:12:19;;;;;;;0.70;0.70;;;15.80;99.90;;;;;;5008550;28;20668;-85
2022/07/01 01:14:46;;;;;;;2.93;1.23;;;15.70;99.90;;;;;;5044020;28;20258;-83
2022/07/01 01:17:13;;;;;;;2.03;0.90;;;15.70;99.90;;;;;;5005106;28;20199;-85
2022/07/01 01:19:39;;;;;;;1.03;0.63;;;15.70;99.90;;;;;;5012512;28;20211;-84
2022/07/01 01:22:05;;;;;;;1.33;1.00;;;15.80;99.90;;;;;;5011717;28;20241;-83
2022/07/01 01:24:31;;;;;;;1.53;1.33;;;15.80;99.90;;;;;;5010483;28;20221;-84
2022/07/01 01:26:56;;;;;;;2.00;0.60;;;15.80;99.90;;;;;;5011917;28;20215;-85
2022/07/01 01:29:22;;;;;;;0.87;0.83;;;15.70;99.90;;;;;;5009619;28;20196;-82
2022/07/01 01:31:48;;;;;;;0.30;0.30;;;15.70;99.90;;;;;;5013611;28;20591;-84
2022/07/01 01:34:13;;;;;;;3.93;0.77;;;15.60;99.90;;;;;;5006537;28;20318;-84
2022/07/01 01:36:39;;;;;;;0.50;0.50;;;15.70;99.90;;;;;;5014289;28;20676;-85
2022/07/01 01:39:11;;;;;;;1.27;0.83;;;15.70;99.90;;;;;;4997968;28;20272;-85
2022/07/01 01:41:37;;;;;;;0.80;0.73;;;15.70;99.90;;;;;;5007820;28;20199;-83
2022/07/01 01:44:03;;;;;;;0.90;0.90;;;15.80;99.90;;;;;;5040924;28;20234;-83
2022/07/01 01:46:30;;;;;;;1.03;0.70;;;15.80;99.90;;;;;;5037670;28;20238;-85
2022/07/01 01:48:56;;;;;;;0.63;0.60;;;15.80;99.90;;;;;;5009695;28;20230;-84
2022/07/01 01:51:22;;;;;;;0.60;0.50;;;15.80;99.90;;;;;;5046368;28;20246;-84
2022/07/01 01:53:48;;;;;;;0.83;0.70;;;15.80;99.90;;;;;;5007933;28;20234;-85
2022/07/01 01:56:13;;;;;;;1.20;1.00;;;15.80;99.90;;;;;;5011002;28;20195;-85
2022/07/01 01:58:42;;;;;;;0.93;0.70;;;15.70;99.90;;;;;;4990899;28;20734;-83
2022/07/01 02:01:13;;;;;;;1.30;1.20;;;15.70;99.90;;;;;;5008760;28;20218;-84
2022/07/01 02:03:40;;;;;;;1.47;0.70;;;15.80;99.90;;;;;;5012525;28;20219;-83
2022/07/01 02:06:09;;;;;;;0.60;0.60;;;15.70;99.90;;;;;;5013266;28;20526;-83
2022/07/01 02:08:36;;;;;;;0.60;0.60;;;15.70;99.90;;;;;;5008531;28;20199;-83
2022/07/01 02:11:02;;;;;;;2.30;1.20;;;15.70;99.90;;;;;;5009972;28;20998;-84
2022/07/01 02:13:28;;;;;;;0.60;0.60;;;15.70;99.90;;;;;;5040185;28;20321;-83
2022/07/01 02:15:54;;;;;;;6.67;1.17;;;15.70;99.90;;;;;;5009385;28;20238;-84
2022/07/01 02:18:20;;;;;;;1.07;0.57;;;15.70;99.90;;;;;;5007501;28;20314;-83
2022/07/01 02:20:46;;;;;;;0.67;0.60;;;15.60;99.90;;;;;;5005760;28;21093;-86
2022/07/01 02:23:12;;;;;;;2.13;0.70;;;15.60;99.90;;;;;;5006014;28;20303;-85
2022/07/01 02:25:37;;;;;;;1.50;0.70;;;15.50;99.90;;;;;;5009102;28;20227;-84
2022/07/01 02:28:03;;;;;;;0.50;0.50;;;15.50;99.90;;;;;;5010441;28;21076;-84
2022/07/01 02:30:30;;;;;;;1.77;0.60;;;15.40;99.90;;;;;;5011832;28;20238;-82
2022/07/01 02:32:56;;;;;;;0.60;0.60;;;15.40;99.90;;;;;;5010194;28;20635;-84
2022/07/01 02:35:22;;;;;;;0.87;0.73;;;15.40;99.90;;;;;;5041385;28;20220;-84
2022/07/01 02:37:48;;;;;;;1.30;0.77;;;15.40;99.90;;;;;;5011616;28;20195;-82
2022/07/01 02:40:14;;;;;;;2.30;1.00;;;15.40;99.90;;;;;;5005412;28;20322;-82
2022/07/01 02:42:40;;;;;;;1.87;1.17;;;15.30;99.90;;;;;;5005849;28;20714;-83
2022/07/01 02:45:08;;;;;;;1.60;1.27;;;15.30;99.90;;;;;;5041221;28;20719;-84
2022/07/01 02:47:41;;;;;;;4.33;1.90;;;15.30;99.90;;;;;;5039640;28;20520;-84
2022/07/01 02:50:09;;;;;;;1.80;1.30;;;15.40;99.90;;;;;;5011522;28;20242;-84
2022/07/01 02:52:36;;;;;;;1.97;1.03;;;15.40;99.90;;;;;;5039900;28;20684;-83
2022/07/01 02:55:03;;;;;;;1.47;1.37;;;15.40;99.90;;;;;;5004148;28;20238;-84
2022/07/01 02:57:29;;;;;;;1.20;1.10;;;15.30;99.90;;;;;;5013610;28;20454;-84
2022/07/01 02:59:54;;;;;;;5.00;1.70;;;15.30;99.90;;;;;;5009928;28;20206;-83
2022/07/01 03:02:20;;;;;;;2.33;1.90;;;15.30;99.90;;;;;;5040473;28;21024;-83
2022/07/01 03:04:48;;;;;;;2.10;1.90;;;15.30;99.90;;;;;;5008294;28;20203;-83
2022/07/01 03:07:14;;;;;;;2.10;1.40;;;15.40;99.90;;;;;;5007883;28;20783;-83
2022/07/01 03:09:40;;;;;;;3.17;1.60;;;15.40;99.90;;;;;;5007477;28;21191;-83
2022/07/01 03:14:52;;;;;;;1.97;1.53;;;15.50;99.90;;;;;;5012344;28;20273;-84
2022/07/01 03:17:19;;;;;;;2.47;2.03;;;15.50;99.90;;;;;;5008114;28;21045;-84
2022/07/01 03:19:46;;;;;;;2.00;1.80;;;15.50;99.90;;;;;;5011609;28;20770;-83
2022/07/01 03:22:12;;;;;;;3.27;1.90;;;15.50;99.90;;;;;;5007706;28;20219;-84
2022/07/01 03:24:37;;;;;;;5.20;1.93;;;15.60;99.90;;;;;;5011433;28;20225;-83
2022/07/01 03:27:03;;;;;;;1.70;1.60;;;15.60;99.90;;;;;;5002403;28;20225;-83
2022/07/01 03:29:29;;;;;;;2.27;1.80;;;15.70;99.90;;;;;;5039826;28;20198;-83
2022/07/01 03:31:55;;;;;;;4.17;1.73;;;15.70;99.90;;;;;;5006972;28;20209;-84
2022/07/01 03:34:21;;;;;;;3.80;1.40;;;15.70;99.90;;;;;;5047207;28;21076;-83
2022/07/01 03:36:47;;;;;;;2.10;1.50;;;15.70;99.90;;;;;;5022561;28;20305;-84
2022/07/01 03:39:13;;;;;;;3.67;2.07;;;15.70;99.90;;;;;;5012186;28;20211;-83
2022/07/01 03:41:39;;;;;;;1.80;1.57;;;15.70;99.90;;;;;;5013578;28;20214;-84
2022/07/01 03:44:08;;;;;;;2.23;1.70;;;15.70;99.90;;;;;;5012082;28;20252;-84
2022/07/01 03:46:35;;;;;;;3.63;1.73;;;15.80;99.90;;;;;;5012153;28;20223;-82
2022/07/01 03:49:01;;;;;;;2.77;2.20;;;15.80;99.90;;;;;;5012342;28;20211;-83
2022/07/01 03:51:27;;;;;;;2.30;2.10;;;15.90;99.90;;;;;;5042417;28;20647;-84
2022/07/01 03:56:38;;;;;;;7.13;2.00;;;16.00;99.90;;;;;;5014018;28;20175;-83
2022/07/01 03:59:03;;;;;;;1.60;1.50;;;16.00;99.90;;;;;;5007877;28;20198;-84
2022/07/01 04:01:29;;;;;;;4.47;1.80;;;16.00;99.90;;;;;;5012198;28;20234;-82
2022/07/01 04:03:55;;;;;;;4.77;2.17;;;16.00;99.90;;;;;;5013661;28;20223;-83
2022/07/01 04:06:21;;;;;;;2.00;1.70;;;16.00;99.90;;;;;;5014573;28;20731;-84
2022/07/01 04:08:48;;;;;;;2.53;1.57;;;16.00;99.90;;;;;;5012501;28;20211;-84
2022/07/01 04:11:15;;;;;;;5.73;2.20;;;16.00;99.90;;;;;;5012602;28;20234;-82
2022/07/01 04:13:41;;;;;;;4.17;1.60;;;16.00;99.90;;;;;;5010460;28;20325;-83
2022/07/01 04:16:07;;;;;;;3.63;2.07;;;16.00;99.90;;;;;;5012563;28;20676;-83
2022/07/01 04:18:33;;;;;;;4.63;1.23;;;16.00;99.90;;;;;;5010155;28;20207;-83
2022/07/01 04:23:44;;;;;;;1.80;1.43;;;16.10;99.90;;;;;;5014377;28;20739;-84
2022/07/01 04:26:10;;;;;;;2.67;1.70;;;16.20;99.90;;;;;;5008979;28;20179;-83
2022/07/01 04:28:36;;;;;;;4.37;1.73;;;16.20;99.90;;;;;;5041479;28;20223;-82
2022/07/01 04:31:02;;;;;;;3.93;1.57;;;16.20;99.90;;;;;;5008861;28;20234;-83
2022/07/01 04:33:27;;;;;;;3.80;1.37;;;16.20;99.90;;;;;;5023910;28;20985;-83
2022/07/01 04:35:53;;;;;;;3.53;0.80;;;16.30;99.90;;;;;;5007718;28;20238;-83
2022/07/01 04:38:19;;;;;;;1.70;0.87;;;16.20;99.90;;;;;;5010557;28;20668;-83
2022/07/01 04:41:58;;;;;;;5.37;0.90;;;16.20;99.90;;;;;;5042582;28;20218;-83
2022/07/01 04:43:30;;;;;;;1.27;1.07;;;16.10;99.90;;;;;;5005832;28;20242;-83
2022/07/01 04:45:56;;;;;;;1.53;1.00;;;16.20;99.90;;;;;;4993681;28;20206;-83
2022/07/01 04:48:22;;;;;;;1.30;1.20;;;16.20;99.90;;;;;;5010642;28;20230;-83
2022/07/01 04:50:47;;;;;;;3.33;0.70;;;16.20;99.90;;;;;;5006803;28;20230;-82
2022/07/01 04:53:14;;;;;;;2.50;0.83;;;16.20;99.90;;;;;;5023556;28;20206;-84
2022/07/01 04:55:39;;;;;;;1.13;0.97;;;16.20;99.90;;;;;;5009038;28;20229;-83
2022/07/01 04:58:05;;;;;;;3.47;1.50;;;16.20;99.90;;;;;;5004742;28;20640;-83
2022/07/01 05:00:31;;;;;;;1.23;1.13;;;16.20;99.90;;;;;;5023417;28;20258;-84
2022/07/01 05:02:56;;;;;;;0.80;0.80;;;16.40;99.90;;;;;;5005339;28;20233;-83
2022/07/01 05:05:22;;;;;;;6.00;1.47;;;16.30;99.90;;;;;;5009912;28;20667;-82
2022/07/01 05:07:48;;;;;;;1.20;0.97;;;16.30;99.90;;;;;;5011278;28;20194;-84
2022/07/01 05:10:14;;;;;;;0.73;0.73;;;16.20;99.90;;;;;;5005598;28;20719;-84
2022/07/01 05:12:40;;;;;;;3.37;0.97;;;16.30;99.90;;;;;;5006697;28;20285;-84
2022/07/01 05:15:06;;;;;;;1.17;0.93;;;16.30;99.90;;;;;;5023968;28;20227;-84
2022/07/01 05:23:02;;;;;;;2.00;0.70;;;16.40;99.90;;;;;;5035708;28;20223;-84
2022/07/01 05:25:27;;;;;;;1.80;0.90;;;16.50;99.90;;;;;;5040439;28;20683;-84
2022/07/01 05:27:54;;;;;;;2.30;1.03;;;16.50;99.90;;;;;;4992687;28;20207;-84
2022/07/01 05:30:21;;;;;;;1.60;1.00;;;16.70;99.90;;;;;;5010750;28;20219;-84
2022/07/01 05:32:47;;;;;;;1.60;1.33;;;16.60;99.90;;;;;;5012492;28;20578;-84
2022/07/01 05:35:14;;;;;;;2.77;1.47;;;16.60;99.90;;;;;;5042281;28;20217;-85
2022/07/01 05:37:40;;;;;;;3.53;1.53;;;16.60;99.90;;;;;;5005369;28;20227;-85
2022/07/01 05:40:06;;;;;;;4.30;1.40;;;16.70;99.90;;;;;;5010239;28;20242;-86
2022/07/01 05:42:32;;;;;;;2.17;1.17;;;16.70;99.90;;;;;;4992523;28;20237;-84
2022/07/01 05:44:58;;;;;;;2.60;0.97;;;16.70;99.90;;;;;;5024761;28;20748;-84
2022/07/01 05:47:23;;;;;;;2.83;1.50;;;16.60;99.90;;;;;;5040568;28;20202;-85
2022/07/01 05:49:49;;;;;;;1.67;1.10;;;16.60;99.90;;;;;;5007486;28;20202;-84
2022/07/01 05:52:15;;;;;;;1.50;1.30;;;16.60;99.90;;;;;;5012613;28;20242;-85
2022/07/01 05:54:41;;;;;;;6.33;1.97;;;16.50;99.90;;;;;;5024918;28;20230;-86
2022/07/01 05:57:06;;;;;;;1.60;1.13;;;16.60;99.90;;;;;;5009895;28;20702;-84
2022/07/01 05:59:32;;;;;;;2.80;1.70;;;16.70;99.90;;;;;;5012333;28;20195;-85
2022/07/01 06:01:58;;;;;;;3.10;2.13;;;16.60;99.90;;;;;;5006032;28;20195;-85
2022/07/01 06:04:23;;;;;;;2.30;1.50;;;16.60;99.90;;;;;;5014412;28;20218;-85
2022/07/01 06:06:49;;;;;;;1.37;1.23;;;16.60;99.90;;;;;;5009530;28;20405;-84
2022/07/01 06:09:15;;;;;;;2.87;1.83;;;16.60;99.90;;;;;;5046356;28;20270;-84
2022/07/01 06:11:41;;;;;;;3.87;1.93;;;16.60;99.90;;;;;;5008056;28;20371;-85
2022/07/01 06:14:06;;;;;;;7.17;1.50;;;16.60;99.90;;;;;;5011822;28;20326;-84
2022/07/01 06:16:32;;;;;;;2.73;1.87;;;16.60;99.90;;;;;;5024124;28;20755;-84
2022/07/01 06:18:58;;;;;;;6.13;2.33;;;16.60;99.90;;;;;;5012653;28;20237;-82
2022/07/01 06:21:24;;;;;;;2.73;1.80;;;16.60;99.90;;;;;;5008806;28;20597;-82
2022/07/01 06:23:49;;;;;;;2.43;2.07;;;16.60;99.90;;;;;;5005759;28;20223;-83
2022/07/01 06:26:15;;;;;;;9.07;1.93;;;16.70;99.90;;;;;;5005793;28;20183;-83
2022/07/01 06:28:42;;;;;;;8.67;1.97;;;16.70;99.90;;;;;;5026522;28;20235;-83
2022/07/01 06:31:08;;;;;;;4.47;1.53;;;16.60;99.90;;;;;;5010709;28;20232;-84
2022/07/01 06:33:33;;;;;;;1.83;1.30;;;16.60;99.90;;;;;;5013264;28;20604;-83
2022/07/01 06:35:59;;;;;;;4.13;1.73;;;16.70;99.90;;;;;;4992477;28;20337;-83
2022/07/01 06:38:25;;;;;;;5.40;2.40;;;16.90;99.90;;;;;;5006256;28;20242;-83
2022/07/01 06:43:35;;;;;;;5.23;1.97;;;17.00;99.90;;;;;;4993516;28;20218;-83
2022/07/01 06:46:02;;;;;;;9.97;1.97;;;17.20;99.90;;;;;;4987155;28;20211;-82
2022/07/01 06:48:28;;;;;;;10.37;1.93;;;17.20;99.90;;;;;;5001298;28;20211;-83
2022/07/01 06:50:54;;;;;;;10.53;2.53;;;17.30;99.90;;;;;;5004567;28;20238;-84
2022/07/01 06:53:20;;;;;;;8.03;2.50;;;17.40;99.90;;;;;;5001855;28;21131;-82
2022/07/01 06:55:45;;;;;;;8.33;2.43;;;17.30;99.90;;;;;;5000979;28;20207;-83
2022/07/01 06:58:11;;;;;;;7.37;2.57;;;17.40;99.90;;;;;;5005973;28;20281;-83
2022/07/01 07:00:37;;;;;;;3.30;1.83;;;17.60;99.90;;;;;;5004081;28;20219;-84
2022/07/01 07:03:03;;;;;;;5.93;2.00;;;17.80;99.90;;;;;;5005406;28;20240;-84
2022/07/01 07:05:31;;;;;;;4.50;2.77;;;17.90;99.90;;;;;;5010143;28;20218;-83
2022/07/01 07:07:57;;;;;;;3.83;2.73;;;17.90;99.90;;;;;;5004805;28;20202;-82
2022/07/01 07:10:24;;;;;;;5.73;2.83;;;17.90;99.90;;;;;;5010599;28;20223;-84
2022/07/01 07:12:49;;;;;;;11.17;3.10;;;17.90;99.90;;;;;;5023442;28;20222;-83
2022/07/01 07:15:15;;;;;;;2.90;2.37;;;18.00;99.90;;;;;;5006509;28;20716;-83
2022/07/01 07:17:41;;;;;;;3.20;2.20;;;18.10;99.90;;;;;;5024063;28;20219;-85
2022/07/01 07:20:08;;;;;;;4.77;1.90;;;18.30;99.90;;;;;;5004022;28;20175;-84
2022/07/01 07:22:33;;;;;;;3.20;1.83;;;18.30;99.90;;;;;;5037313;28;20219;-84
2022/07/01 07:24:59;;;;;;;3.17;1.73;;;18.40;99.90;;;;;;5007112;28;20959;-84
2022/07/01 07:27:25;;;;;;;3.33;2.10;;;18.60;99.90;;;;;;5037168;28;20279;-83
2022/07/01 07:29:50;;;;;;;3.13;2.00;;;18.70;99.90;;;;;;4986653;28;20234;-84
2022/07/01 07:32:16;;;;;;;9.63;1.97;;;18.60;99.90;;;;;;5041317;28;20348;-84
2022/07/01 07:34:42;;;;;;;2.70;1.20;;;18.50;99.90;;;;;;5002687;28;20362;-84
2022/07/01 07:37:08;;;;;;;5.37;1.43;;;18.60;99.90;;;;;;5004574;28;20219;-83
2022/07/01 07:39:33;;;;;;;3.07;1.50;;;18.80;99.90;;;;;;5001954;28;20361;-84
2022/07/01 07:41:59;;;;;;;3.40;1.50;;;19.00;99.90;;;;;;4998864;28;20268;-84
2022/07/01 07:44:25;;;;;;;3.50;1.43;;;19.50;99.90;;;;;;4999482;28;20322;-84
2022/07/01 07:46:51;;;;;;;1.33;1.20;;;20.20;99.90;;;;;;5000763;28;20608;-84
2022/07/01 07:49:16;;;;;;;4.50;1.50;;;20.60;99.90;;;;;;5007169;28;20533;-83
2022/07/01 07:51:42;;;;;;;4.80;1.80;;;20.90;99.90;;;;;;5000528;28;20227;-83
2022/07/01 07:54:08;;;;;;;6.90;1.60;;;21.30;99.90;;;;;;5033748;28;20692;-84
2022/07/01 07:56:34;;;;;;;3.73;1.27;;;21.30;99.90;;;;;;5038645;28;20226;-85
2022/07/01 07:58:59;;;;;;;1.80;1.40;;;21.90;99.90;;;;;;5001094;28;20652;-83
2022/07/01 08:01:25;;;;;;;2.00;1.00;;;22.20;99.90;;;;;;5003389;28;20215;-86
2022/07/01 08:03:51;;;;;;;2.67;1.57;;;22.60;99.90;;;;;;5004770;28;20618;-84
2022/07/01 08:06:17;;;;;;;3.17;1.70;;;22.00;99.90;;;;;;5002175;28;20246;-85
2022/07/01 08:08:43;;;;;;;1.67;0.80;;;21.40;99.90;;;;;;4997481;28;20254;-85
2022/07/01 08:11:09;;;;;;;3.70;1.10;;;21.20;99.90;;;;;;4998962;28;20575;-84
2022/07/01 08:13:35;;;;;;;3.93;1.13;;;20.80;99.90;;;;;;5004331;28;20232;-85
2022/07/01 08:16:00;;;;;;;3.83;1.07;;;20.60;99.90;;;;;;5033817;28;20225;-84
2022/07/01 08:18:26;;;;;;;3.10;1.10;;;20.30;99.90;;;;;;5034773;28;20215;-85
2022/07/01 08:20:52;;;;;;;1.80;1.00;;;19.90;99.90;;;;;;5000520;28;20235;-86
2022/07/01 08:23:22;;;;;;;3.50;1.20;;;19.60;99.90;;;;;;4999191;28;20192;-85
2022/07/01 08:25:48;;;;;;;1.07;0.90;;;19.50;99.90;;;;;;4998143;28;20223;-85
2022/07/01 08:28:14;;;;;;;3.70;1.43;;;19.60;99.90;;;;;;5006423;28;20522;-84
2022/07/01 08:30:40;;;;;;;2.93;1.07;;;19.70;99.90;;;;;;5038775;28;20723;-85
2022/07/01 08:33:06;;;;;;;2.80;0.90;;;19.80;99.90;;;;;;5013640;28;20276;-85
2022/07/01 08:35:32;;;;;;;2.93;1.33;;;20.00;99.90;;;;;;5002601;28;20218;-85
2022/07/01 08:37:57;;;;;;;3.47;1.20;;;20.40;99.90;;;;;;5032461;28;20183;-86
2022/07/01 08:40:30;;;;;;;4.73;1.10;;;20.90;99.90;;;;;;5002476;28;20230;-85
2022/07/01 08:43:01;;;;;;;2.00;0.90;;;21.00;99.90;;;;;;5002192;28;20211;-84
2022/07/01 08:45:29;;;;;;;4.20;0.83;;;21.40;99.90;;;;;;5021681;28;20730;-85
2022/07/01 08:48:00;;;;;;;2.07;0.70;;;21.90;99.90;;;;;;5010658;28;20223;-83
2022/07/01 08:50:28;;;;;;;1.90;1.00;;;21.50;99.90;;;;;;5010068;28;20224;-83
2022/07/01 08:52:54;;;;;;;1.30;0.90;;;21.60;99.90;;;;;;5038377;28;20229;-83
2022/07/01 08:55:20;;;;;;;3.27;1.10;;;21.80;99.90;;;;;;5010683;28;20245;-84
2022/07/01 08:57:47;;;;;;;3.20;0.83;;;21.20;99.90;;;;;;5005223;28;20215;-84
2022/07/01 09:00:13;;;;;;;0.80;0.60;;;20.40;99.90;;;;;;5026529;28;20313;-83
2022/07/01 09:02:53;;;;;;;2.30;0.80;;;20.40;99.90;;;;;;5041684;28;20223;-84
2022/07/01 09:05:19;;;;;;;0.70;0.70;;;20.10;99.90;;;;;;5004359;28;20199;-82
2022/07/01 09:07:46;;;;;;;2.57;0.83;;;20.00;99.90;;;;;;5006033;28;20222;-83
2022/07/01 09:10:18;;;;;;;3.70;0.80;;;19.70;99.90;;;;;;5004406;28;20223;-82
2022/07/01 09:12:45;;;;;;;2.27;1.00;;;20.30;99.90;;;;;;4987871;28;20221;-81
2022/07/01 09:15:25;;;;;;;2.30;0.70;;;22.10;99.90;;;;;;5009864;28;20662;-83
2022/07/01 09:17:55;;;;;;;0.87;0.60;;;24.00;99.90;;;;;;5006376;28;20323;-84
2022/07/01 09:20:34;;;;;;;1.23;0.93;;;23.70;99.90;;;;;;5004933;28;20196;-84
2022/07/01 09:23:06;;;;;;;1.07;0.80;;;22.40;99.90;;;;;;5003680;28;20400;-82
2022/07/01 09:25:37;;;;;;;2.10;0.70;;;22.30;99.90;;;;;;5006960;28;20954;-83
2022/07/01 09:28:14;;;;;;;1.50;0.50;;;22.10;99.90;;;;;;5006936;28;20215;-82
2022/07/01 09:30:43;;;;;;;1.97;0.80;;;21.80;99.90;;;;;;5002919;28;20242;-82
2022/07/01 09:33:17;;;;;;;2.03;0.80;;;21.30;99.90;;;;;;5003248;28;20548;-84
2022/07/01 09:35:44;;;;;;;2.40;0.90;;;21.90;99.90;;;;;;5004491;28;20231;-83
2022/07/01 09:38:12;;;;;;;2.77;0.93;;;22.90;99.90;;;;;;5024067;28;20897;-84
2022/07/01 09:40:48;;;;;;;0.80;0.80;;;23.00;99.90;;;;;;5005735;28;20224;-82
2022/07/01 09:43:20;;;;;;;1.33;0.93;;;22.40;99.90;;;;;;5003300;28;20708;-81
2022/07/01 09:45:53;;;;;;;1.67;0.70;;;22.20;99.90;;;;;;5006643;28;20234;-82
2022/07/01 09:48:19;;;;;;;5.13;0.75;;;22.70;99.90;;;;;;5006184;28;20231;-83
2022/07/01 09:50:45;;;;;;;0.55;0.55;;;24.10;99.90;;;;;;5002534;28;20243;-83
2022/07/01 09:53:13;;;;;;;3.13;0.60;;;24.50;99.90;;;;;;5003118;28;20187;-82
2022/07/01 09:55:39;;;;;;;2.05;0.70;;;23.60;99.90;;;;;;5008856;28;20325;-82
2022/07/01 09:58:06;;;;;;;0.77;0.50;;;23.50;99.90;;;;;;5003513;28;20235;-83
2022/07/01 10:00:32;;;;;;;1.45;0.60;;;23.30;99.90;;;;;;5009405;28;20219;-87
2022/07/01 10:03:00;;;;;;;2.75;1.05;;;23.30;99.90;;;;;;5005656;28;20297;-85
2022/07/01 10:05:28;;;;;;;1.92;0.80;;;23.50;99.90;;;;;;5005227;28;20192;-82
2022/07/01 10:08:14;;;;;;;5.45;0.90;;;22.90;99.90;;;;;;5010726;28;20183;-85
2022/07/01 10:11:18;;;;;;;0.77;0.70;;;23.60;99.90;;;;;;5002757;28;20219;-83
2022/07/01 10:13:45;;;;;;;2.88;0.88;;;23.20;99.90;;;;;;5002754;28;20391;-84
2022/07/01 10:16:11;;;;;;;1.90;1.00;;;22.30;99.90;;;;;;5002841;28;20242;-83
2022/07/01 10:18:38;;;;;;;1.83;1.45;;;21.70;99.90;;;;;;5004504;28;20219;-83
2022/07/01 10:21:05;;;;;;;1.25;1.05;;;21.40;99.90;;;;;;5038812;28;20619;-84
2022/07/01 10:24:12;;;;;;;0.90;0.80;;;20.80;99.90;;;;;;5007505;28;20543;-83
2022/07/01 10:26:38;;;;;;;3.00;0.80;;;20.60;99.90;;;;;;5024428;28;20656;-83
2022/07/01 10:29:03;;;;;;;1.53;1.33;;;20.50;99.90;;;;;;5006498;28;20195;-82
2022/07/01 10:31:37;;;;;;;1.83;0.87;;;20.40;99.90;;;;;;5003595;28;20527;-83
2022/07/01 10:34:04;;;;;;;2.80;1.10;;;20.80;99.90;;;;;;5040003;28;20234;-83
2022/07/01 10:36:32;;;;;;;1.30;0.90;;;20.70;99.90;;;;;;5004284;28;20219;-83
2022/07/01 10:39:06;;;;;;;1.87;1.13;;;20.70;99.90;;;;;;4986173;28;20219;-83
2022/07/01 10:41:34;;;;;;;0.97;0.90;;;20.00;99.90;;;;;;5003346;28;20189;-81
2022/07/01 10:44:14;;;;;;;1.60;0.87;;;20.40;99.90;;;;;;5005963;28;20195;-84
2022/07/01 10:46:45;;;;;;;1.90;1.20;;;20.40;99.90;;;;;;5008041;28;20222;-84
2022/07/01 10:49:14;;;;;;;4.17;1.30;;;20.00;99.90;;;;;;5005125;28;20331;-82
2022/07/01 10:51:50;;;;;;;5.40;1.17;;;20.10;99.90;;;;;;5003431;28;20239;-83
2022/07/01 10:54:34;;;;;;;1.43;1.17;;;20.50;99.90;;;;;;5003734;28;20278;-81
2022/07/01 10:57:23;;;;;;;1.20;1.10;;;21.40;99.90;;;;;;5032681;28;20254;-84
2022/07/01 10:59:59;;;;;;;3.50;0.97;;;21.10;99.90;;;;;;5036749;28;20254;-82
2022/07/01 11:02:38;;;;;;;1.63;1.00;;;21.10;99.90;;;;;;5002179;28;20183;-83
2022/07/01 11:05:09;;;;;;;1.07;0.80;;;20.70;99.90;;;;;;5005270;28;20316;-83
2022/07/01 11:07:37;;;;;;;3.10;1.07;;;20.40;99.90;;;;;;5002012;28;20293;-84
2022/07/01 11:10:08;;;;;;;2.07;0.67;;;20.60;99.90;;;;;;5007326;28;20233;-83
2022/07/01 11:12:34;;;;;;;1.03;0.90;;;21.00;99.90;;;;;;5033733;28;20207;-83
2022/07/01 11:15:05;;;;;;;2.97;1.03;;;21.60;99.90;;;;;;5001275;28;20340;-82
2022/07/01 11:17:32;;;;;;;3.87;1.03;;;22.00;99.90;;;;;;5003717;28;21051;-84
2022/07/01 11:19:59;;;;;;;2.70;0.90;;;21.30;99.90;;;;;;5001203;28;20630;-83
2022/07/01 11:22:27;;;;;;;0.60;0.60;;;21.60;99.90;;;;;;5034695;28;21146;-85
2022/07/01 11:24:58;;;;;;;1.30;0.80;;;21.40;99.90;;;;;;5001189;28;20219;-83
2022/07/01 11:27:25;;;;;;;1.60;0.70;;;22.10;99.90;;;;;;5005621;28;20241;-83
2022/07/01 11:29:56;;;;;;;0.60;0.60;;;21.60;99.90;;;;;;5000610;28;20306;-81
2022/07/01 11:32:30;;;;;;;0.50;0.50;;;21.40;99.90;;;;;;5002361;28;20318;-82
2022/07/01 11:34:56;;;;;;;2.83;0.67;;;21.50;99.90;;;;;;5006237;28;20203;-85
2022/07/01 11:40:12;;;;;;;0.60;0.60;;;22.00;99.90;;;;;;5002575;28;20215;-83
2022/07/01 11:42:38;;;;;;;1.23;0.60;;;22.40;99.90;;;;;;5003692;28;20326;-82
2022/07/01 11:45:05;;;;;;;3.97;1.00;;;21.80;99.90;;;;;;4998204;28;20219;-83
2022/07/01 11:47:30;;;;;;;1.07;0.90;;;21.70;99.90;;;;;;5000480;28;20537;-81
2022/07/01 11:49:57;;;;;;;0.50;0.50;;;21.70;99.90;;;;;;5002859;28;20195;-81
2022/07/01 11:52:24;;;;;;;2.23;1.50;;;21.60;99.90;;;;;;5002582;28;20253;-84
2022/07/01 11:54:52;;;;;;;3.23;0.73;;;21.90;99.90;;;;;;5007111;28;20250;-84
2022/07/01 11:57:23;;;;;;;1.33;0.60;;;22.10;99.90;;;;;;5037056;28;20680;-82
2022/07/01 11:59:51;;;;;;;0.83;0.70;;;21.90;99.90;;;;;;5008603;28;20230;-82
2022/07/01 12:02:21;;;;;;;3.50;0.80;;;22.00;99.90;;;;;;5007560;28;20233;-84
2022/07/01 12:04:47;;;;;;;0.70;0.60;;;21.50;99.90;;;;;;5009720;28;20242;-83
2022/07/01 12:07:15;;;;;;;1.10;0.60;;;21.40;99.90;;;;;;5004667;28;20302;-85
2022/07/01 12:09:41;;;;;;;0.53;0.53;;;21.10;99.90;;;;;;5023574;28;20263;-84
2022/07/01 12:12:15;;;;;;;1.23;0.70;;;21.00;99.90;;;;;;5010369;28;20738;-81
2022/07/01 12:14:53;;;;;;;4.37;0.90;;;21.50;99.90;;;;;;5040508;28;20330;-84
2022/07/01 12:17:19;;;;;;;2.57;0.77;;;21.80;99.90;;;;;;5004307;28;20189;-82
2022/07/01 12:19:47;;;;;;;0.97;0.70;;;22.30;99.90;;;;;;5005692;28;20210;-84
2022/07/01 12:22:16;;;;;;;2.03;0.70;;;22.30;99.90;;;;;;5003692;28;20226;-81
2022/07/01 12:24:42;;;;;;;2.33;0.70;;;21.70;99.90;;;;;;5004850;28;20273;-83
2022/07/01 12:27:09;;;;;;;2.70;0.70;;;21.50;99.90;;;;;;5008104;28;20238;-81
2022/07/01 12:29:49;;;;;;;4.87;0.80;;;21.60;99.90;;;;;;5006258;28;20202;-83
2022/07/01 12:32:25;;;;;;;0.50;0.50;;;22.10;99.90;;;;;;5011268;28;20643;-84
2022/07/01 12:35:03;;;;;;;2.97;0.60;;;22.20;99.90;;;;;;5005271;28;20230;-82
2022/07/01 12:37:34;;;;;;;2.63;0.80;;;21.70;99.90;;;;;;5004269;28;20259;-84
2022/07/01 12:40:24;;;;;;;0.60;0.53;;;21.50;99.90;;;;;;5007733;28;20231;-82
2022/07/01 12:42:50;;;;;;;0.90;0.80;;;21.40;99.90;;;;;;5007490;28;20239;-81
2022/07/01 12:45:21;;;;;;;2.30;0.73;;;21.00;99.90;;;;;;5011859;28;20305;-83
2022/07/01 12:47:51;;;;;;;2.70;0.67;;;21.00;99.90;;;;;;5004188;28;20233;-82
2022/07/01 12:50:32;;;;;;;1.07;0.80;;;21.30;99.90;;;;;;5019777;28;21057;-83
2022/07/01 12:53:00;;;;;;;3.23;0.70;;;21.40;99.90;;;;;;5007233;28;20223;-83
2022/07/01 12:55:30;;;;;;;3.57;0.83;;;21.60;99.90;;;;;;5004107;28;20838;-83
2022/07/01 12:57:59;;;;;;;2.93;1.10;;;21.70;99.90;;;;;;5005603;28;20659;-81
2022/07/01 13:00:27;;;;;;;2.63;1.03;;;21.50;99.90;;;;;;5008314;28;20246;-83
2022/07/01 13:02:58;;;;;;;1.33;0.70;;;21.40;99.90;;;;;;5007476;28;20344;-84
2022/07/01 13:05:24;;;;;;;2.87;0.80;;;21.60;99.90;;;;;;5003522;28;20248;-84
2022/07/01 13:07:50;;;;;;;2.53;1.10;;;21.60;99.90;;;;;;5005269;28;20237;-83